createdAt,value
2019-05-28T00:01:17.607Z,6.80
2019-05-28T00:03:48.051Z,6.50
2019-05-28T00:06:18.483Z,7.00
2019-05-28T00:08:48.787Z,6.87
2019-05-28T00:11:19.157Z,6.70
2019-05-28T00:13:49.501Z,6.90
2019-05-28T00:16:19.815Z,6.70
2019-05-28T00:18:50.139Z,6.63
2019-05-28T00:21:20.603Z,6.80
2019-05-28T00:23:51.031Z,7.10
2019-05-28T00:26:21.349Z,7.20
2019-05-28T00:28:51.681Z,7.10
2019-05-28T00:31:22.085Z,6.57
2019-05-28T00:33:52.364Z,6.90
2019-05-28T00:36:22.822Z,6.87
2019-05-28T00:38:53.129Z,6.87
2019-05-28T00:41:23.490Z,6.83
2019-05-28T00:43:53.789Z,6.97
2019-05-28T00:46:25.142Z,7.00
2019-05-28T00:48:56.434Z,7.07
2019-05-28T00:51:26.745Z,6.70
2019-05-28T00:53:58.304Z,7.00
2019-05-28T00:56:29.025Z,6.73
2019-05-28T00:58:59.833Z,6.90
2019-05-28T01:01:30.169Z,6.90
2019-05-28T01:04:00.481Z,6.67
2019-05-28T01:06:30.783Z,6.30
2019-05-28T01:09:01.113Z,7.03
2019-05-28T01:11:31.429Z,6.90
2019-05-28T01:14:01.742Z,7.13
2019-05-28T01:16:32.157Z,7.30
2019-05-28T01:19:02.469Z,7.87
2019-05-28T01:21:32.781Z,6.83
2019-05-28T01:24:03.187Z,6.73
2019-05-28T01:26:35.086Z,7.37
2019-05-28T01:29:05.566Z,7.90
2019-05-28T01:31:35.870Z,7.27
2019-05-28T01:34:06.258Z,7.53
2019-05-28T01:36:36.584Z,7.47
2019-05-28T01:39:08.624Z,7.17
2019-05-28T01:41:48.909Z,6.70
2019-05-28T01:44:20.717Z,7.00
2019-05-28T01:46:51.986Z,5.90
2019-05-28T01:49:23.722Z,7.13
2019-05-28T01:51:54.028Z,6.83
2019-05-28T01:54:24.330Z,6.53
2019-05-28T01:59:17.217Z,6.80
2019-05-28T02:01:47.527Z,7.20
2019-05-28T02:04:17.898Z,7.23
2019-05-28T02:06:48.314Z,6.90
2019-05-28T02:09:18.699Z,7.10
2019-05-28T02:11:50.593Z,6.67
2019-05-28T02:14:20.897Z,6.60
2019-05-28T02:16:51.338Z,7.10
2019-05-28T02:19:21.605Z,6.43
2019-05-28T02:21:51.917Z,7.33
2019-05-28T02:24:25.623Z,6.77
2019-05-28T02:26:56.997Z,7.30
2019-05-28T02:29:27.408Z,6.40
2019-05-28T02:31:57.766Z,7.27
2019-05-28T02:34:28.127Z,6.17
2019-05-28T02:36:58.526Z,6.93
2019-05-28T02:39:28.742Z,6.53
2019-05-28T02:41:59.260Z,7.27
2019-05-28T02:44:29.566Z,6.60
2019-05-28T02:46:59.902Z,6.67
2019-05-28T02:49:30.204Z,6.33
2019-05-28T02:52:00.594Z,6.23
2019-05-28T02:54:31.569Z,5.60
2019-05-28T02:57:02.426Z,5.60
2019-05-28T02:59:34.949Z,5.47
2019-05-28T03:02:05.531Z,5.37
2019-05-28T03:04:39.702Z,5.60
2019-05-28T03:07:10.980Z,5.87
2019-05-28T03:09:43.218Z,5.17
2019-05-28T03:12:13.513Z,5.47
2019-05-28T03:14:43.892Z,5.50
2019-05-28T03:17:15.021Z,5.70
2019-05-28T03:19:46.557Z,5.47
2019-05-28T03:22:19.729Z,5.73
2019-05-28T03:24:51.982Z,5.37
2019-05-28T03:27:22.461Z,5.23
2019-05-28T03:29:52.770Z,4.93
2019-05-28T03:32:23.151Z,5.37
2019-05-28T03:34:53.497Z,5.47
2019-05-28T03:37:24.650Z,5.47
2019-05-28T03:39:58.299Z,5.67
2019-05-28T03:42:31.261Z,5.17
2019-05-28T03:45:03.643Z,5.23
2019-05-28T03:47:39.865Z,5.20
2019-05-28T03:50:12.315Z,5.77
2019-05-28T03:52:42.633Z,5.67
2019-05-28T03:55:12.950Z,5.07
2019-05-28T03:57:43.281Z,5.27
2019-05-28T04:00:13.599Z,5.20
2019-05-28T04:02:43.962Z,5.23
2019-05-28T04:05:14.269Z,5.30
2019-05-28T04:07:44.619Z,5.10
2019-05-28T04:10:14.924Z,5.20
2019-05-28T04:12:45.256Z,4.80
2019-05-28T04:15:16.098Z,5.23
2019-05-28T04:17:46.441Z,4.90
2019-05-28T04:20:18.190Z,5.60
2019-05-28T04:22:48.594Z,5.20
2019-05-28T04:25:18.884Z,4.90
2019-05-28T04:27:49.212Z,5.10
2019-05-28T04:30:19.774Z,5.40
2019-05-28T04:32:50.125Z,5.40
2019-05-28T04:35:20.485Z,4.97
2019-05-28T04:37:50.810Z,4.90
2019-05-28T04:40:21.234Z,5.00
2019-05-28T04:42:51.597Z,4.87
2019-05-28T04:45:21.901Z,5.03
2019-05-28T04:47:52.270Z,4.70
2019-05-28T04:50:22.797Z,5.23
2019-05-28T04:52:53.232Z,5.23
2019-05-28T04:55:23.568Z,5.03
2019-05-28T04:57:53.897Z,5.23
2019-05-28T05:00:24.355Z,5.00
2019-05-28T05:02:59.486Z,4.77
2019-05-28T05:05:26.877Z,5.77
2019-05-28T05:07:57.325Z,5.67
2019-05-28T05:10:27.816Z,5.50
2019-05-28T05:12:58.281Z,5.40
2019-05-28T05:15:28.782Z,5.47
2019-05-28T05:17:59.111Z,5.10
2019-05-28T05:20:29.446Z,4.63
2019-05-28T05:22:59.785Z,4.83
2019-05-28T05:25:30.175Z,5.17
2019-05-28T05:28:00.425Z,5.10
2019-05-28T05:30:32.602Z,4.83
2019-05-28T05:33:19.090Z,4.83
2019-05-28T05:35:38.482Z,5.43
2019-05-28T05:38:10.866Z,5.63
2019-05-28T05:40:45.216Z,5.27
2019-05-28T05:43:25.902Z,5.30
2019-05-28T05:45:57.418Z,5.97
2019-05-28T05:48:33.738Z,5.80
2019-05-28T05:51:07.111Z,6.03
2019-05-28T05:53:41.751Z,5.50
2019-05-28T05:56:16.733Z,5.40
2019-05-28T05:58:55.092Z,5.27
2019-05-28T06:01:34.727Z,5.73
2019-05-28T06:04:09.672Z,5.13
2019-05-28T06:06:41.980Z,5.70
2019-05-28T06:09:13.608Z,5.17
2019-05-28T06:11:43.922Z,5.60
2019-05-28T06:14:14.241Z,5.53
2019-05-28T06:16:44.645Z,5.60
2019-05-28T06:19:15.013Z,5.40
2019-05-28T06:21:45.317Z,5.23
2019-05-28T06:24:15.651Z,6.10
2019-05-28T06:26:45.992Z,5.43
2019-05-28T06:29:16.321Z,4.93
2019-05-28T06:31:46.727Z,5.13
2019-05-28T06:34:17.008Z,5.13
2019-05-28T06:36:47.415Z,5.13
2019-05-28T06:39:17.698Z,5.23
2019-05-28T06:41:48.049Z,4.67
2019-05-28T06:44:18.344Z,4.93
2019-05-28T06:46:48.676Z,5.53
2019-05-28T06:49:19.165Z,5.30
2019-05-28T06:51:49.477Z,6.17
2019-05-28T06:54:19.794Z,5.43
2019-05-28T06:56:50.108Z,5.10
2019-05-28T06:59:20.410Z,4.97
2019-05-28T07:01:50.750Z,5.40
2019-05-28T07:04:32.369Z,5.40
2019-05-28T07:06:53.023Z,5.20
2019-05-28T07:09:23.353Z,5.33
2019-05-28T07:11:53.794Z,5.17
2019-05-28T07:14:24.119Z,5.40
2019-05-28T07:16:54.519Z,4.97
2019-05-28T07:19:25.311Z,6.03
2019-05-28T07:21:55.866Z,5.07
2019-05-28T07:24:26.298Z,5.20
2019-05-28T07:26:56.625Z,5.23
2019-05-28T07:29:26.997Z,5.03
2019-05-28T07:31:57.301Z,5.17
2019-05-28T07:34:31.208Z,4.97
2019-05-28T07:36:59.718Z,4.93
2019-05-28T07:39:31.333Z,5.60
2019-05-28T07:42:01.745Z,5.53
2019-05-28T07:44:32.034Z,5.80
2019-05-28T07:47:02.369Z,5.77
2019-05-28T07:49:32.926Z,5.43
2019-05-28T07:52:03.241Z,5.30
2019-05-28T07:54:33.566Z,5.83
2019-05-28T07:57:05.202Z,5.50
2019-05-28T07:59:35.537Z,5.30
2019-05-28T08:02:05.873Z,5.80
2019-05-28T08:04:46.948Z,6.03
2019-05-28T08:07:08.293Z,5.70
2019-05-28T08:09:38.809Z,5.70
2019-05-28T08:12:09.120Z,6.50
2019-05-28T08:14:39.521Z,6.47
2019-05-28T08:17:09.835Z,5.97
2019-05-28T08:19:40.858Z,5.67
2019-05-28T08:22:13.624Z,5.87
2019-05-28T08:24:43.142Z,6.07
2019-05-28T08:27:13.531Z,7.80
2019-05-28T08:29:45.727Z,6.90
2019-05-28T08:32:16.901Z,7.73
2019-05-28T08:35:02.122Z,6.93
2019-05-28T08:37:19.416Z,8.33
2019-05-28T08:39:49.712Z,7.73
2019-05-28T08:42:20.973Z,8.83
2019-05-28T08:44:52.610Z,9.63
2019-05-28T08:47:22.959Z,8.87
2019-05-28T08:49:53.335Z,9.63
2019-05-28T08:52:23.721Z,9.20
2019-05-28T08:54:54.054Z,9.73
2019-05-28T08:57:24.572Z,8.57
2019-05-28T08:59:54.953Z,7.83
2019-05-28T09:02:28.376Z,7.27
2019-05-28T09:04:57.271Z,9.70
2019-05-28T09:07:27.617Z,9.43
2019-05-28T09:09:57.978Z,12.10
2019-05-28T09:12:28.282Z,13.03
2019-05-28T09:14:58.664Z,13.07
2019-05-28T09:17:29.012Z,11.37
2019-05-28T09:19:59.431Z,11.10
2019-05-28T09:22:29.812Z,11.27
2019-05-28T09:25:05.624Z,10.47
2019-05-28T09:27:35.943Z,10.73
2019-05-28T09:30:08.254Z,10.10
2019-05-28T09:32:38.888Z,10.73
2019-05-28T09:35:09.749Z,9.90
2019-05-28T09:37:40.797Z,7.53
2019-05-28T09:40:11.694Z,7.63
2019-05-28T09:42:42.037Z,8.73
2019-05-28T09:45:22.410Z,8.87
2019-05-28T09:47:45.089Z,7.87
2019-05-28T09:50:29.839Z,6.40
2019-05-28T09:52:54.587Z,7.70
2019-05-28T09:55:20.189Z,9.60
2019-05-28T09:57:50.520Z,10.80
2019-05-28T10:00:22.479Z,10.33
2019-05-28T10:02:52.854Z,10.97
2019-05-28T10:05:23.388Z,10.50
2019-05-28T10:07:53.704Z,9.80
2019-05-28T10:10:24.330Z,10.00
2019-05-28T10:12:54.738Z,10.27
2019-05-28T10:15:25.135Z,8.97
2019-05-28T10:17:55.621Z,8.83
2019-05-28T10:20:26.255Z,10.50
2019-05-28T10:22:56.557Z,9.27
2019-05-28T10:25:26.919Z,9.30
2019-05-28T10:28:01.272Z,9.23
2019-05-28T10:30:29.470Z,9.57
2019-05-28T10:32:59.820Z,10.33
2019-05-28T10:35:30.582Z,10.10
2019-05-28T10:38:00.921Z,10.23
2019-05-28T10:40:31.269Z,10.90
2019-05-28T10:43:01.610Z,10.57
2019-05-28T10:45:31.983Z,11.33
2019-05-28T10:48:02.427Z,11.37
2019-05-28T10:50:33.154Z,10.57
2019-05-28T10:53:03.828Z,11.33
2019-05-28T10:55:34.178Z,12.17
2019-05-28T10:58:04.887Z,11.63
2019-05-28T11:00:35.289Z,12.23
2019-05-28T11:03:05.881Z,11.83
2019-05-28T11:05:36.204Z,10.10
2019-05-28T11:08:06.618Z,10.47
2019-05-28T11:10:36.975Z,8.13
2019-05-28T11:13:07.259Z,8.40
2019-05-28T11:15:41.599Z,10.00
2019-05-28T11:18:15.293Z,7.43
2019-05-28T11:20:45.537Z,5.20
2019-05-28T11:23:16.793Z,6.67
2019-05-28T11:25:47.202Z,5.90
2019-05-28T11:28:17.541Z,6.00
2019-05-28T11:30:47.951Z,7.70
2019-05-28T11:33:21.246Z,6.63
2019-05-28T11:35:51.669Z,5.23
2019-05-28T11:38:21.973Z,5.30
2019-05-28T11:40:52.381Z,3.63
2019-05-28T11:43:22.681Z,3.10
2019-05-28T11:45:53.011Z,3.13
2019-05-28T11:48:23.313Z,4.23
2019-05-28T11:50:53.685Z,4.10
2019-05-28T11:53:24.110Z,3.47
2019-05-28T11:55:54.548Z,3.70
2019-05-28T11:58:25.015Z,3.60
2019-05-28T12:00:55.385Z,3.87
2019-05-28T12:03:25.690Z,4.40
2019-05-28T12:05:56.138Z,4.87
2019-05-28T12:08:26.526Z,3.90
2019-05-28T12:10:56.884Z,4.30
2019-05-28T12:13:27.208Z,4.23
2019-05-28T12:15:57.616Z,4.63
2019-05-28T12:18:27.986Z,3.97
2019-05-28T12:20:58.369Z,4.03
2019-05-28T12:23:28.690Z,4.33
2019-05-28T12:25:58.987Z,3.80
2019-05-28T12:28:37.833Z,3.83
2019-05-28T12:31:01.262Z,4.60
2019-05-28T12:33:31.574Z,4.93
2019-05-28T12:36:02.177Z,5.40
2019-05-28T12:38:32.646Z,4.83
2019-05-28T12:41:04.376Z,5.73
2019-05-28T12:43:36.730Z,6.30
2019-05-28T12:46:06.417Z,7.83
2019-05-28T12:48:36.724Z,8.97
2019-05-28T12:51:06.906Z,7.83
2019-05-28T12:53:49.516Z,7.83
2019-05-28T12:56:09.675Z,7.33
2019-05-28T12:58:43.471Z,6.97
2019-05-28T13:01:17.519Z,7.80
2019-05-28T13:03:51.897Z,7.00
2019-05-28T13:06:24.591Z,7.40
2019-05-28T13:08:57.153Z,6.97
2019-05-28T13:11:27.439Z,7.27
2019-05-28T13:13:58.031Z,5.97
2019-05-28T13:16:28.340Z,6.33
2019-05-28T13:18:58.637Z,6.83
2019-05-28T13:21:29.109Z,5.90
2019-05-28T13:23:59.573Z,6.47
2019-05-28T13:26:29.855Z,7.97
2019-05-28T13:29:01.085Z,7.60
2019-05-28T13:31:33.192Z,8.23
2019-05-28T13:34:03.493Z,8.23
2019-05-28T13:36:33.827Z,9.17
2019-05-28T13:39:05.776Z,10.63
2019-05-28T13:41:36.221Z,10.20
2019-05-28T13:44:08.233Z,10.10
2019-05-28T13:46:39.010Z,9.60
2019-05-28T13:49:09.538Z,8.77
2019-05-28T13:51:39.989Z,10.13
2019-05-28T13:54:10.313Z,9.53
2019-05-28T13:56:40.890Z,8.73
2019-05-28T13:59:14.524Z,9.37
2019-05-28T14:01:44.918Z,9.80
2019-05-28T14:04:14.989Z,10.03
2019-05-28T14:06:45.350Z,9.70
2019-05-28T14:09:15.697Z,9.87
2019-05-28T14:11:46.171Z,10.37
2019-05-28T14:14:16.527Z,4.50
2019-05-28T14:16:46.847Z,3.67
2019-05-28T14:19:17.288Z,2.60
2019-05-28T14:21:47.966Z,2.90
2019-05-28T14:24:18.282Z,2.40
2019-05-28T14:26:48.591Z,2.40
2019-05-28T14:29:19.418Z,2.37
2019-05-28T14:31:49.717Z,2.20
2019-05-28T14:34:20.341Z,1.83
2019-05-28T14:36:50.637Z,2.07
2019-05-28T14:39:39.969Z,1.60
2019-05-28T14:41:56.700Z,2.33
2019-05-28T14:44:27.057Z,2.27
2019-05-28T14:46:57.427Z,2.07
2019-05-28T14:49:27.710Z,2.53
2019-05-28T14:51:58.107Z,2.33
2019-05-28T14:54:28.425Z,2.27
2019-05-28T14:56:58.741Z,2.40
2019-05-28T14:59:29.163Z,2.70
2019-05-28T15:01:59.485Z,2.90
2019-05-28T15:04:29.786Z,2.33
2019-05-28T15:07:00.234Z,3.17
2019-05-28T15:09:30.629Z,2.97
2019-05-28T15:12:03.671Z,2.80
2019-05-28T15:14:33.490Z,2.63
2019-05-28T15:17:03.812Z,2.40
2019-05-28T15:19:34.196Z,2.00
2019-05-28T15:22:04.649Z,2.43
2019-05-28T15:24:35.087Z,2.67
2019-05-28T15:27:05.392Z,2.90
2019-05-28T15:29:35.787Z,3.10
2019-05-28T15:32:06.157Z,3.13
2019-05-28T15:34:36.539Z,3.30
2019-05-28T15:37:06.910Z,3.20
2019-05-28T15:39:40.239Z,3.47
2019-05-28T15:42:19.997Z,3.80
2019-05-28T15:44:42.341Z,3.20
2019-05-28T15:47:12.694Z,2.63
2019-05-28T15:49:43.081Z,2.20
2019-05-28T15:52:13.376Z,2.20
2019-05-28T15:54:43.750Z,2.30
2019-05-28T15:57:14.079Z,2.30
2019-05-28T15:59:44.406Z,2.40
2019-05-28T16:02:14.741Z,2.27
2019-05-28T16:04:45.086Z,2.30
2019-05-28T16:07:15.446Z,2.37
2019-05-28T16:09:55.625Z,2.23
2019-05-28T16:12:17.852Z,2.23
2019-05-28T16:14:48.237Z,2.33
2019-05-28T16:17:18.563Z,2.50
2019-05-28T16:19:48.881Z,2.23
2019-05-28T16:22:19.198Z,2.73
2019-05-28T16:24:49.513Z,1.97
2019-05-28T16:27:19.829Z,2.43
2019-05-28T16:29:50.185Z,2.80
2019-05-28T16:32:24.769Z,2.40
2019-05-28T16:34:53.122Z,2.43
2019-05-28T16:37:23.375Z,2.53
2019-05-28T16:39:53.712Z,2.33
2019-05-28T16:42:24.025Z,2.50
2019-05-28T16:44:56.393Z,2.40
2019-05-28T16:47:27.779Z,2.23
2019-05-28T16:49:58.187Z,2.00
2019-05-28T16:52:28.673Z,2.30
2019-05-28T16:54:59.117Z,2.23
2019-05-28T16:57:29.553Z,2.10
2019-05-28T16:59:59.930Z,1.90
2019-05-28T17:02:30.742Z,2.27
2019-05-28T17:05:01.071Z,1.70
2019-05-28T17:07:31.566Z,1.80
2019-05-28T17:10:01.915Z,1.97
2019-05-28T17:12:32.265Z,1.90
2019-05-28T17:15:03.147Z,1.87
2019-05-28T17:17:33.606Z,2.10
2019-05-28T17:20:05.076Z,2.17
2019-05-28T17:22:35.578Z,2.20
2019-05-28T17:25:11.211Z,2.30
2019-05-28T17:27:41.558Z,2.20
2019-05-28T17:30:20.613Z,2.37
2019-05-28T17:32:45.815Z,1.93
2019-05-28T17:35:16.635Z,2.00
2019-05-28T17:37:48.041Z,2.00
2019-05-28T17:40:21.997Z,2.10
2019-05-28T17:42:50.315Z,2.20
2019-05-28T17:45:21.234Z,1.67
2019-05-28T17:47:51.717Z,2.37
2019-05-28T17:50:22.066Z,2.23
2019-05-28T17:52:52.426Z,2.13
2019-05-28T17:55:22.765Z,2.20
2019-05-28T17:57:53.065Z,2.50
2019-05-28T18:00:23.383Z,2.20
2019-05-28T18:02:53.747Z,2.10
2019-05-28T18:05:27.079Z,2.33
2019-05-28T18:07:57.137Z,2.40
2019-05-28T18:10:27.475Z,2.30
2019-05-28T18:12:57.771Z,2.40
2019-05-28T18:15:28.314Z,2.43
2019-05-28T18:18:02.455Z,2.47
2019-05-28T18:20:35.146Z,2.47
2019-05-28T18:23:05.830Z,2.40
2019-05-28T18:25:36.213Z,2.50
2019-05-28T18:28:06.634Z,2.37
2019-05-28T18:30:36.998Z,2.90
2019-05-28T18:33:07.270Z,2.60
2019-05-28T18:35:39.334Z,2.90
2019-05-28T18:38:09.727Z,2.70
2019-05-28T18:40:40.373Z,2.97
2019-05-28T18:43:10.684Z,3.20
2019-05-28T18:45:41.299Z,2.77
2019-05-28T18:48:11.881Z,3.40
2019-05-28T18:50:43.240Z,2.83
2019-05-28T18:53:14.085Z,2.97
2019-05-28T18:55:46.292Z,3.30
2019-05-28T18:58:20.794Z,3.40
2019-05-28T19:00:50.341Z,3.10
2019-05-28T19:03:20.651Z,3.40
2019-05-28T19:05:51.086Z,3.50
2019-05-28T19:08:21.402Z,2.93
2019-05-28T19:10:53.469Z,3.43
2019-05-28T19:13:25.520Z,3.33
2019-05-28T19:15:55.876Z,3.67
2019-05-28T19:18:27.009Z,3.87
2019-05-28T19:21:00.019Z,3.97
2019-05-28T19:23:30.334Z,3.57
2019-05-28T19:26:00.947Z,3.43
2019-05-28T19:28:31.286Z,3.80
2019-05-28T19:31:01.493Z,4.50
2019-05-28T19:33:31.806Z,3.70
2019-05-28T19:36:03.125Z,4.20
2019-05-28T19:38:44.946Z,4.67
2019-05-28T19:41:05.629Z,4.50
2019-05-28T19:43:35.969Z,4.33
2019-05-28T19:46:06.317Z,4.13
2019-05-28T19:48:36.626Z,4.30
2019-05-28T19:51:06.524Z,4.27
2019-05-28T19:53:36.834Z,4.10
2019-05-28T19:56:06.808Z,3.97
2019-05-28T19:58:40.331Z,4.33
2019-05-28T20:01:10.658Z,4.00
2019-05-28T20:03:40.959Z,4.30
2019-05-28T20:06:11.401Z,4.00
2019-05-28T20:08:41.926Z,4.30
2019-05-28T20:11:12.302Z,4.53
2019-05-28T20:13:42.638Z,4.60
2019-05-28T20:16:12.943Z,4.93
2019-05-28T20:18:43.335Z,4.87
2019-05-28T20:21:13.677Z,4.87
2019-05-28T20:23:43.997Z,5.30
2019-05-28T20:26:14.338Z,4.90
2019-05-28T20:28:44.639Z,4.97
2019-05-28T20:31:16.116Z,4.60
2019-05-28T20:33:46.442Z,5.40
2019-05-28T20:36:16.749Z,5.63
2019-05-28T20:38:47.062Z,4.87
2019-05-28T20:41:17.438Z,5.20
2019-05-28T20:43:47.789Z,5.77
2019-05-28T20:46:18.130Z,5.60
2019-05-28T20:48:48.444Z,5.80
2019-05-28T20:51:22.039Z,6.07
2019-05-28T20:53:50.829Z,6.03
2019-05-28T20:56:21.129Z,6.77
2019-05-28T20:58:51.763Z,6.77
2019-05-28T21:01:22.165Z,6.57
2019-05-28T21:03:52.488Z,6.53
2019-05-28T21:06:22.784Z,6.93
2019-05-28T21:08:54.143Z,7.30
2019-05-28T21:11:24.502Z,8.20
2019-05-28T21:13:54.815Z,8.43
2019-05-28T21:16:25.201Z,9.17
2019-05-28T21:18:55.515Z,8.80
2019-05-28T21:21:25.887Z,10.33
2019-05-28T21:23:56.287Z,10.50
2019-05-28T21:26:26.585Z,10.63
2019-05-28T21:28:56.897Z,11.13
2019-05-28T21:31:27.399Z,10.80
2019-05-28T21:33:57.842Z,11.63
2019-05-28T21:36:28.454Z,12.13
2019-05-28T21:38:59.384Z,12.03
2019-05-28T21:41:29.818Z,12.17
2019-05-28T21:44:00.191Z,11.60
2019-05-28T21:46:30.590Z,12.47
2019-05-28T21:49:01.081Z,12.73
2019-05-28T21:51:31.429Z,11.87
2019-05-28T21:54:02.236Z,13.47
2019-05-28T21:56:33.553Z,12.43
2019-05-28T21:59:03.929Z,12.90
2019-05-28T22:01:36.707Z,13.50
2019-05-28T22:04:07.748Z,13.60
2019-05-28T22:06:38.603Z,12.70
2019-05-28T22:09:09.294Z,11.50
2019-05-28T22:11:41.439Z,11.63
2019-05-28T22:14:11.766Z,11.43
2019-05-28T22:16:42.086Z,10.97
2019-05-28T22:19:12.433Z,10.27
2019-05-28T22:21:42.729Z,8.80
2019-05-28T22:24:13.076Z,8.37
2019-05-28T22:26:43.394Z,8.37
2019-05-28T22:29:13.729Z,7.77
2019-05-28T22:31:44.062Z,7.73
2019-05-28T22:34:14.427Z,8.30
2019-05-28T22:36:44.749Z,8.27
2019-05-28T22:39:16.314Z,8.60
2019-05-28T22:41:46.626Z,8.10
2019-05-28T22:44:16.981Z,7.00
2019-05-28T22:46:47.310Z,7.47
2019-05-28T22:49:17.633Z,8.60
2019-05-28T22:51:48.055Z,7.53
2019-05-28T22:54:18.383Z,7.87
2019-05-28T22:56:48.806Z,8.07
2019-05-28T22:59:19.161Z,7.33
2019-05-28T23:01:49.597Z,7.73
2019-05-28T23:04:19.936Z,7.37
2019-05-28T23:06:50.259Z,7.63
2019-05-28T23:09:20.814Z,7.80
2019-05-28T23:11:51.114Z,7.60
2019-05-28T23:14:21.666Z,7.90
2019-05-28T23:16:52.035Z,8.60
2019-05-28T23:19:22.317Z,8.57
2019-05-28T23:21:52.626Z,8.10
2019-05-28T23:24:22.984Z,7.40
2019-05-28T23:26:53.327Z,6.57
2019-05-28T23:29:23.765Z,5.10
2019-05-28T23:31:54.069Z,4.93
2019-05-28T23:34:24.405Z,4.50
2019-05-28T23:36:54.723Z,4.70
2019-05-28T23:39:25.042Z,4.07
2019-05-28T23:41:55.334Z,3.83
2019-05-28T23:44:25.682Z,4.40
2019-05-28T23:46:56.129Z,3.70
2019-05-28T23:49:26.550Z,3.87
2019-05-28T23:51:56.865Z,4.70
2019-05-28T23:54:27.232Z,4.07
2019-05-28T23:56:57.529Z,4.03
2019-05-28T23:59:30.982Z,4.13
